sensor_id;sensor_type;location;lat;lon;timestamp;pressure;altitude;pressure_sealevel;temperature
59339;BMP280;45117;50.960;5.500;2023-04-25T00:02:04;100187.91;;;6.82
59339;BMP280;45117;50.960;5.500;2023-04-25T00:04:32;100182.16;;;6.80
59339;BMP280;45117;50.960;5.500;2023-04-25T00:07:00;100179.50;;;6.80
59339;BMP280;45117;50.960;5.500;2023-04-25T00:09:27;100182.94;;;6.81
59339;BMP280;45117;50.960;5.500;2023-04-25T00:11:54;100181.41;;;6.80
59339;BMP280;45117;50.960;5.500;2023-04-25T00:14:20;100174.16;;;6.80
59339;BMP280;45117;50.960;5.500;2023-04-25T00:16:48;100181.00;;;6.77
59339;BMP280;45117;50.960;5.500;2023-04-25T00:19:16;100186.34;;;6.77
59339;BMP280;45117;50.960;5.500;2023-04-25T00:21:43;100189.03;;;6.81
59339;BMP280;45117;50.960;5.500;2023-04-25T00:24:13;100185.22;;;6.82
59339;BMP280;45117;50.960;5.500;2023-04-25T00:26:39;100184.06;;;6.80
59339;BMP280;45117;50.960;5.500;2023-04-25T00:29:06;100190.94;;;6.84
59339;BMP280;45117;50.960;5.500;2023-04-25T00:31:32;100188.28;;;6.84
59339;BMP280;45117;50.960;5.500;2023-04-25T00:33:59;100182.56;;;6.86
59339;BMP280;45117;50.960;5.500;2023-04-25T00:36:25;100180.25;;;6.88
59339;BMP280;45117;50.960;5.500;2023-04-25T00:38:53;100187.50;;;6.87
59339;BMP280;45117;50.960;5.500;2023-04-25T00:41:23;100186.78;;;6.87
59339;BMP280;45117;50.960;5.500;2023-04-25T00:43:52;100185.59;;;6.91
59339;BMP280;45117;50.960;5.500;2023-04-25T00:46:19;100190.19;;;6.91
59339;BMP280;45117;50.960;5.500;2023-04-25T00:48:46;100181.03;;;6.92
59339;BMP280;45117;50.960;5.500;2023-04-25T00:51:16;100181.03;;;6.92
59339;BMP280;45117;50.960;5.500;2023-04-25T00:53:45;100184.47;;;6.92
59339;BMP280;45117;50.960;5.500;2023-04-25T00:56:12;100189.03;;;6.92
59339;BMP280;45117;50.960;5.500;2023-04-25T00:58:41;100167.66;;;6.77
59339;BMP280;45117;50.960;5.500;2023-04-25T01:01:10;100195.16;;;6.96
59339;BMP280;45117;50.960;5.500;2023-04-25T01:03:38;100190.97;;;6.95
59339;BMP280;45117;50.960;5.500;2023-04-25T01:06:07;100193.97;;;6.93
59339;BMP280;45117;50.960;5.500;2023-04-25T01:08:34;100195.50;;;6.94
59339;BMP280;45117;50.960;5.500;2023-04-25T01:11:00;100196.28;;;6.91
59339;BMP280;45117;50.960;5.500;2023-04-25T01:13:27;100188.28;;;6.91
59339;BMP280;45117;50.960;5.500;2023-04-25T01:15:55;100191.31;;;6.90
59339;BMP280;45117;50.960;5.500;2023-04-25T01:18:21;100195.13;;;6.89
59339;BMP280;45117;50.960;5.500;2023-04-25T01:20:50;100195.50;;;6.87
59339;BMP280;45117;50.960;5.500;2023-04-25T01:23:18;100200.44;;;6.89
59339;BMP280;45117;50.960;5.500;2023-04-25T01:25:46;100189.78;;;6.89
59339;BMP280;45117;50.960;5.500;2023-04-25T01:28:13;100191.31;;;6.86
59339;BMP280;45117;50.960;5.500;2023-04-25T01:30:40;100190.19;;;6.84
59339;BMP280;45117;50.960;5.500;2023-04-25T01:33:08;100176.06;;;6.76
59339;BMP280;45117;50.960;5.500;2023-04-25T01:35:34;100193.63;;;6.84
59339;BMP280;45117;50.960;5.500;2023-04-25T01:38:01;100188.66;;;6.86
59339;BMP280;45117;50.960;5.500;2023-04-25T01:40:29;100183.31;;;6.86
59339;BMP280;45117;50.960;5.500;2023-04-25T01:42:56;100193.63;;;6.84
59339;BMP280;45117;50.960;5.500;2023-04-25T01:45:23;100191.69;;;6.81
59339;BMP280;45117;50.960;5.500;2023-04-25T01:47:49;100200.44;;;6.82
59339;BMP280;45117;50.960;5.500;2023-04-25T01:50:16;100199.34;;;6.83
59339;BMP280;45117;50.960;5.500;2023-04-25T01:52:44;100197.41;;;6.80
59339;BMP280;45117;50.960;5.500;2023-04-25T01:55:11;100206.94;;;6.81
59339;BMP280;45117;50.960;5.500;2023-04-25T01:57:39;100205.38;;;6.76
59339;BMP280;45117;50.960;5.500;2023-04-25T02:00:06;100211.13;;;6.78
59339;BMP280;45117;50.960;5.500;2023-04-25T02:02:34;100209.56;;;6.77
59339;BMP280;45117;50.960;5.500;2023-04-25T02:05:00;100210.75;;;6.72
59339;BMP280;45117;50.960;5.500;2023-04-25T02:07:27;100217.56;;;6.73
59339;BMP280;45117;50.960;5.500;2023-04-25T02:09:53;100215.69;;;6.70
59339;BMP280;45117;50.960;5.500;2023-04-25T02:12:20;100220.63;;;6.72
59339;BMP280;45117;50.960;5.500;2023-04-25T02:14:48;100219.47;;;6.69
59339;BMP280;45117;50.960;5.500;2023-04-25T02:17:14;100225.59;;;6.70
59339;BMP280;45117;50.960;5.500;2023-04-25T02:19:41;100216.06;;;6.69
59339;BMP280;45117;50.960;5.500;2023-04-25T02:22:07;100219.88;;;6.68
59339;BMP280;45117;50.960;5.500;2023-04-25T02:24:34;100219.88;;;6.68
59339;BMP280;45117;50.960;5.500;2023-04-25T02:27:00;100221.00;;;6.67
59339;BMP280;45117;50.960;5.500;2023-04-25T02:29:27;100222.16;;;6.66
59339;BMP280;45117;50.960;5.500;2023-04-25T02:31:55;100219.50;;;6.66
59339;BMP280;45117;50.960;5.500;2023-04-25T02:34:21;100223.28;;;6.65
59339;BMP280;45117;50.960;5.500;2023-04-25T02:36:48;100221.75;;;6.64
59339;BMP280;45117;50.960;5.500;2023-04-25T02:39:15;100226.69;;;6.62
59339;BMP280;45117;50.960;5.500;2023-04-25T02:41:42;100229.75;;;6.60
59339;BMP280;45117;50.960;5.500;2023-04-25T02:44:08;100227.81;;;6.61
59339;BMP280;45117;50.960;5.500;2023-04-25T02:46:35;100224.03;;;6.58
59339;BMP280;45117;50.960;5.500;2023-04-25T02:49:03;100230.13;;;6.59
59339;BMP280;45117;50.960;5.500;2023-04-25T02:51:30;100224.03;;;6.55
59339;BMP280;45117;50.960;5.500;2023-04-25T02:53:57;100224.78;;;6.55
59339;BMP280;45117;50.960;5.500;2023-04-25T02:56:23;100232.41;;;6.53
59339;BMP280;45117;50.960;5.500;2023-04-25T02:58:52;100223.66;;;6.53
59339;BMP280;45117;50.960;5.500;2023-04-25T03:01:18;100233.16;;;6.54
59339;BMP280;45117;50.960;5.500;2023-04-25T03:03:45;100229.75;;;6.53
59339;BMP280;45117;50.960;5.500;2023-04-25T03:06:13;100228.97;;;6.53
59339;BMP280;45117;50.960;5.500;2023-04-25T03:08:39;100233.16;;;6.50
59339;BMP280;45117;50.960;5.500;2023-04-25T03:11:06;100220.97;;;6.53
59339;BMP280;45117;50.960;5.500;2023-04-25T03:13:32;100222.84;;;6.52
59339;BMP280;45117;50.960;5.500;2023-04-25T03:15:59;100222.09;;;6.52
59339;BMP280;45117;50.960;5.500;2023-04-25T03:18:26;100225.91;;;6.50
59339;BMP280;45117;50.960;5.500;2023-04-25T03:20:52;100228.59;;;6.47
59339;BMP280;45117;50.960;5.500;2023-04-25T03:23:20;100228.59;;;6.47
59339;BMP280;45117;50.960;5.500;2023-04-25T03:25:46;100232.00;;;6.51
59339;BMP280;45117;50.960;5.500;2023-04-25T03:28:13;100224.00;;;6.47
59339;BMP280;45117;50.960;5.500;2023-04-25T03:30:40;100225.16;;;6.46
59339;BMP280;45117;50.960;5.500;2023-04-25T03:33:06;100228.59;;;6.47
59339;BMP280;45117;50.960;5.500;2023-04-25T03:35:32;100228.97;;;6.49
59339;BMP280;45117;50.960;5.500;2023-04-25T03:37:59;100222.50;;;6.46
59339;BMP280;45117;50.960;5.500;2023-04-25T03:40:27;100225.53;;;6.45
59339;BMP280;45117;50.960;5.500;2023-04-25T03:42:53;100226.31;;;6.45
59339;BMP280;45117;50.960;5.500;2023-04-25T03:45:20;100227.03;;;6.42
59339;BMP280;45117;50.960;5.500;2023-04-25T03:47:46;100225.91;;;6.43
59339;BMP280;45117;50.960;5.500;2023-04-25T03:50:13;100232.38;;;6.42
59339;BMP280;45117;50.960;5.500;2023-04-25T03:52:39;100233.13;;;6.43
59339;BMP280;45117;50.960;5.500;2023-04-25T03:55:06;100225.50;;;6.41
59339;BMP280;45117;50.960;5.500;2023-04-25T03:57:34;100230.09;;;6.41
59339;BMP280;45117;50.960;5.500;2023-04-25T04:00:01;100237.69;;;6.39
59339;BMP280;45117;50.960;5.500;2023-04-25T04:02:29;100244.91;;;6.38
59339;BMP280;45117;50.960;5.500;2023-04-25T04:04:55;100248.72;;;6.37
59339;BMP280;45117;50.960;5.500;2023-04-25T04:07:22;100251.38;;;6.37
59339;BMP280;45117;50.960;5.500;2023-04-25T04:09:48;100249.09;;;6.36
59339;BMP280;45117;50.960;5.500;2023-04-25T04:12:15;100249.47;;;6.31
59339;BMP280;45117;50.960;5.500;2023-04-25T04:14:43;100253.69;;;6.32
59339;BMP280;45117;50.960;5.500;2023-04-25T04:17:09;100241.47;;;6.31
59339;BMP280;45117;50.960;5.500;2023-04-25T04:19:35;100252.88;;;6.28
59339;BMP280;45117;50.960;5.500;2023-04-25T04:22:02;100262.00;;;6.27
59339;BMP280;45117;50.960;5.500;2023-04-25T04:24:29;100252.09;;;6.23
59339;BMP280;45117;50.960;5.500;2023-04-25T04:26:55;100260.81;;;6.20
59339;BMP280;45117;50.960;5.500;2023-04-25T04:29:22;100260.03;;;6.13
59339;BMP280;45117;50.960;5.500;2023-04-25T04:31:51;100259.66;;;6.11
59339;BMP280;45117;50.960;5.500;2023-04-25T04:34:17;100264.19;;;6.10
59339;BMP280;45117;50.960;5.500;2023-04-25T04:36:44;100270.31;;;6.11
59339;BMP280;45117;50.960;5.500;2023-04-25T04:39:11;100275.25;;;6.12
59339;BMP280;45117;50.960;5.500;2023-04-25T04:41:38;100276.75;;;6.10
59339;BMP280;45117;50.960;5.500;2023-04-25T04:44:05;100276.75;;;6.10
59339;BMP280;45117;50.960;5.500;2023-04-25T04:46:34;100276.38;;;6.08
59339;BMP280;45117;50.960;5.500;2023-04-25T04:49:04;100276.00;;;6.13
59339;BMP280;45117;50.960;5.500;2023-04-25T04:51:31;100286.69;;;6.13
59339;BMP280;45117;50.960;5.500;2023-04-25T04:53:58;100275.97;;;6.06
59339;BMP280;45117;50.960;5.500;2023-04-25T04:56:27;100295.47;;;6.17
59339;BMP280;45117;50.960;5.500;2023-04-25T04:58:54;100299.25;;;6.16
59339;BMP280;45117;50.960;5.500;2023-04-25T05:01:21;100295.84;;;6.15
59339;BMP280;45117;50.960;5.500;2023-04-25T05:03:47;100298.88;;;6.21
59339;BMP280;45117;50.960;5.500;2023-04-25T05:06:15;100294.72;;;6.23
59339;BMP280;45117;50.960;5.500;2023-04-25T05:08:45;100308.47;;;6.29
59339;BMP280;45117;50.960;5.500;2023-04-25T05:11:13;100304.66;;;6.30
59339;BMP280;45117;50.960;5.500;2023-04-25T05:13:39;100301.66;;;6.32
59339;BMP280;45117;50.960;5.500;2023-04-25T05:16:06;100311.50;;;6.31
59339;BMP280;45117;50.960;5.500;2023-04-25T05:18:32;100310.00;;;6.34
59339;BMP280;45117;50.960;5.500;2023-04-25T05:20:59;100313.81;;;6.33
59339;BMP280;45117;50.960;5.500;2023-04-25T05:23:27;100324.88;;;6.38
59339;BMP280;45117;50.960;5.500;2023-04-25T05:25:55;100328.28;;;6.39
59339;BMP280;45117;50.960;5.500;2023-04-25T05:28:22;100334.44;;;6.46
59339;BMP280;45117;50.960;5.500;2023-04-25T05:30:48;100333.69;;;6.46
59339;BMP280;45117;50.960;5.500;2023-04-25T05:33:15;100338.63;;;6.47
59339;BMP280;45117;50.960;5.500;2023-04-25T05:35:42;100346.25;;;6.45
59339;BMP280;45117;50.960;5.500;2023-04-25T05:38:08;100353.47;;;6.48
59339;BMP280;45117;50.960;5.500;2023-04-25T05:40:36;100357.28;;;6.51
59339;BMP280;45117;50.960;5.500;2023-04-25T05:43:02;100354.66;;;6.55
59339;BMP280;45117;50.960;5.500;2023-04-25T05:45:29;100361.16;;;6.64
59339;BMP280;45117;50.960;5.500;2023-04-25T05:47:56;100365.75;;;6.67
59339;BMP280;45117;50.960;5.500;2023-04-25T05:50:22;100365.41;;;6.76
59339;BMP280;45117;50.960;5.500;2023-04-25T05:52:50;100362.78;;;6.90
59339;BMP280;45117;50.960;5.500;2023-04-25T05:55:16;100364.31;;;6.84
59339;BMP280;45117;50.960;5.500;2023-04-25T05:57:45;100362.44;;;6.95
59339;BMP280;45117;50.960;5.500;2023-04-25T06:00:13;100360.53;;;6.99
59339;BMP280;45117;50.960;5.500;2023-04-25T06:02:41;100361.31;;;7.07
59339;BMP280;45117;50.960;5.500;2023-04-25T06:05:08;100364.00;;;7.07
59339;BMP280;45117;50.960;5.500;2023-04-25T06:07:34;100377.31;;;7.07
59339;BMP280;45117;50.960;5.500;2023-04-25T06:10:01;100373.56;;;7.12
59339;BMP280;45117;50.960;5.500;2023-04-25T06:12:29;100371.63;;;7.09
59339;BMP280;45117;50.960;5.500;2023-04-25T06:14:56;100375.44;;;7.11
59339;BMP280;45117;50.960;5.500;2023-04-25T06:17:23;100374.31;;;7.12
59339;BMP280;45117;50.960;5.500;2023-04-25T06:19:49;100378.53;;;7.20
59339;BMP280;45117;50.960;5.500;2023-04-25T06:22:16;100386.53;;;7.27
59339;BMP280;45117;50.960;5.500;2023-04-25T06:24:42;100382.00;;;7.35
59339;BMP280;45117;50.960;5.500;2023-04-25T06:27:09;100386.19;;;7.43
59339;BMP280;45117;50.960;5.500;2023-04-25T06:29:35;100391.53;;;7.72
59339;BMP280;45117;50.960;5.500;2023-04-25T06:32:03;100391.16;;;7.73
59339;BMP280;45117;50.960;5.500;2023-04-25T06:34:30;100396.53;;;7.88
59339;BMP280;45117;50.960;5.500;2023-04-25T06:36:56;100394.25;;;7.79
59339;BMP280;45117;50.960;5.500;2023-04-25T06:39:23;100396.88;;;7.93
59339;BMP280;45117;50.960;5.500;2023-04-25T06:41:50;100396.88;;;7.97
59339;BMP280;45117;50.960;5.500;2023-04-25T06:44:17;100398.41;;;8.01
59339;BMP280;45117;50.960;5.500;2023-04-25T06:46:43;100406.81;;;8.21
59339;BMP280;45117;50.960;5.500;2023-04-25T06:49:11;100401.81;;;8.27
59339;BMP280;45117;50.960;5.500;2023-04-25T06:51:37;100407.47;;;8.50
59339;BMP280;45117;50.960;5.500;2023-04-25T06:54:04;100420.81;;;8.61
59339;BMP280;45117;50.960;5.500;2023-04-25T06:56:31;100421.63;;;8.51
59339;BMP280;45117;50.960;5.500;2023-04-25T06:58:57;100417.78;;;8.48
59339;BMP280;45117;50.960;5.500;2023-04-25T07:01:25;100416.31;;;8.33
59339;BMP280;45117;50.960;5.500;2023-04-25T07:03:52;100419.66;;;8.62
59339;BMP280;45117;50.960;5.500;2023-04-25T07:06:19;100423.09;;;8.62
59339;BMP280;45117;50.960;5.500;2023-04-25T07:08:46;100426.09;;;8.79
59339;BMP280;45117;50.960;5.500;2023-04-25T07:11:12;100433.41;;;8.67
59339;BMP280;45117;50.960;5.500;2023-04-25T07:13:39;100427.69;;;8.73
59339;BMP280;45117;50.960;5.500;2023-04-25T07:16:06;100433.66;;;8.98
59339;BMP280;45117;50.960;5.500;2023-04-25T07:18:32;100444.06;;;8.82
59339;BMP280;45117;50.960;5.500;2023-04-25T07:20:58;100440.28;;;8.76
59339;BMP280;45117;50.960;5.500;2023-04-25T07:23:26;100435.28;;;8.78
59339;BMP280;45117;50.960;5.500;2023-04-25T07:25:53;100434.19;;;8.64
59339;BMP280;45117;50.960;5.500;2023-04-25T07:28:20;100441.28;;;9.14
59339;BMP280;45117;50.960;5.500;2023-04-25T07:30:46;100448.47;;;9.17
59339;BMP280;45117;50.960;5.500;2023-04-25T07:33:13;100452.41;;;9.64
59339;BMP280;45117;50.960;5.500;2023-04-25T07:35:39;100448.59;;;9.65
59339;BMP280;45117;50.960;5.500;2023-04-25T07:38:06;100458.75;;;9.85
59339;BMP280;45117;50.960;5.500;2023-04-25T07:40:34;100461.66;;;10.04
59339;BMP280;45117;50.960;5.500;2023-04-25T07:43:00;100455.25;;;9.95
59339;BMP280;45117;50.960;5.500;2023-04-25T07:45:27;100459.69;;;10.12
59339;BMP280;45117;50.960;5.500;2023-04-25T07:47:54;100464.06;;;10.36
59339;BMP280;45117;50.960;5.500;2023-04-25T07:50:20;100469.38;;;10.40
59339;BMP280;45117;50.960;5.500;2023-04-25T07:52:47;100466.81;;;10.63
59339;BMP280;45117;50.960;5.500;2023-04-25T07:55:14;100474.19;;;10.56
59339;BMP280;45117;50.960;5.500;2023-04-25T07:57:42;100470.50;;;10.43
59339;BMP280;45117;50.960;5.500;2023-04-25T08:00:09;100470.28;;;10.60
59339;BMP280;45117;50.960;5.500;2023-04-25T08:02:37;100475.34;;;10.17
59339;BMP280;45117;50.960;5.500;2023-04-25T08:05:04;100464.84;;;10.33
59339;BMP280;45117;50.960;5.500;2023-04-25T08:07:33;100478.88;;;10.48
59339;BMP280;45117;50.960;5.500;2023-04-25T08:09:59;100484.13;;;10.59
59339;BMP280;45117;50.960;5.500;2023-04-25T08:12:26;100486.66;;;10.73
59339;BMP280;45117;50.960;5.500;2023-04-25T08:14:54;100475.69;;;10.91
59339;BMP280;45117;50.960;5.500;2023-04-25T08:17:20;100492.88;;;10.97
59339;BMP280;45117;50.960;5.500;2023-04-25T08:19:47;100491.66;;;11.02
59339;BMP280;45117;50.960;5.500;2023-04-25T08:22:13;100498.41;;;10.86
59339;BMP280;45117;50.960;5.500;2023-04-25T08:24:40;100498.81;;;10.81
59339;BMP280;45117;50.960;5.500;2023-04-25T08:27:07;100507.03;;;10.67
59339;BMP280;45117;50.960;5.500;2023-04-25T08:29:34;100513.44;;;10.77
59339;BMP280;45117;50.960;5.500;2023-04-25T08:32:02;100510.94;;;10.62
59339;BMP280;45117;50.960;5.500;2023-04-25T08:34:28;100508.19;;;11.00
59339;BMP280;45117;50.960;5.500;2023-04-25T08:36:55;100517.75;;;10.71
59339;BMP280;45117;50.960;5.500;2023-04-25T08:39:21;100519.41;;;10.91
59339;BMP280;45117;50.960;5.500;2023-04-25T08:41:48;100523.91;;;10.68
59339;BMP280;45117;50.960;5.500;2023-04-25T08:44:14;100526.22;;;10.69
59339;BMP280;45117;50.960;5.500;2023-04-25T08:46:42;100531.47;;;10.39
59339;BMP280;45117;50.960;5.500;2023-04-25T08:49:16;100532.41;;;10.18
59339;BMP280;45117;50.960;5.500;2023-04-25T08:51:45;100549.28;;;10.18
59339;BMP280;45117;50.960;5.500;2023-04-25T08:54:14;100552.69;;;9.67
59339;BMP280;45117;50.960;5.500;2023-04-25T08:56:44;100547.34;;;9.63
59339;BMP280;45117;50.960;5.500;2023-04-25T08:59:11;100561.56;;;9.53
59339;BMP280;45117;50.960;5.500;2023-04-25T09:01:38;100550.56;;;9.40
59339;BMP280;45117;50.960;5.500;2023-04-25T09:04:04;100565.00;;;9.61
59339;BMP280;45117;50.960;5.500;2023-04-25T09:06:32;100569.59;;;9.53
59339;BMP280;45117;50.960;5.500;2023-04-25T09:09:02;100576.50;;;9.61
59339;BMP280;45117;50.960;5.500;2023-04-25T09:11:30;100575.63;;;9.75
59339;BMP280;45117;50.960;5.500;2023-04-25T09:14:10;100584.63;;;10.06
59339;BMP280;45117;50.960;5.500;2023-04-25T09:16:57;100591.97;;;10.47
59339;BMP280;45117;50.960;5.500;2023-04-25T09:19:26;100596.13;;;10.55
59339;BMP280;45117;50.960;5.500;2023-04-25T09:21:55;100594.22;;;10.52
59339;BMP280;45117;50.960;5.500;2023-04-25T09:24:30;100603.91;;;10.83
59339;BMP280;45117;50.960;5.500;2023-04-25T09:26:57;100607.88;;;11.06
59339;BMP280;45117;50.960;5.500;2023-04-25T09:29:29;100605.47;;;11.15
59339;BMP280;45117;50.960;5.500;2023-04-25T09:32:10;100607.81;;;11.13
59339;BMP280;45117;50.960;5.500;2023-04-25T09:34:39;100607.09;;;11.43
59339;BMP280;45117;50.960;5.500;2023-04-25T09:37:09;100596.94;;;11.81
59339;BMP280;45117;50.960;5.500;2023-04-25T09:39:36;100598.22;;;11.73
59339;BMP280;45117;50.960;5.500;2023-04-25T09:42:03;100602.88;;;11.69
59339;BMP280;45117;50.960;5.500;2023-04-25T09:44:30;100611.03;;;12.16
59339;BMP280;45117;50.960;5.500;2023-04-25T09:46:56;100600.66;;;13.20
59339;BMP280;45117;50.960;5.500;2023-04-25T09:49:25;100598.56;;;13.28
59339;BMP280;45117;50.960;5.500;2023-04-25T09:51:55;100610.53;;;13.79
59339;BMP280;45117;50.960;5.500;2023-04-25T09:54:24;100608.03;;;14.50
59339;BMP280;45117;50.960;5.500;2023-04-25T09:56:52;100599.91;;;14.05
59339;BMP280;45117;50.960;5.500;2023-04-25T09:59:19;100604.66;;;13.52
59339;BMP280;45117;50.960;5.500;2023-04-25T10:01:48;100608.56;;;14.45
59339;BMP280;45117;50.960;5.500;2023-04-25T10:04:19;100605.66;;;15.61
59339;BMP280;45117;50.960;5.500;2023-04-25T10:06:45;100605.69;;;14.07
59339;BMP280;45117;50.960;5.500;2023-04-25T10:09:14;100606.63;;;13.32
59339;BMP280;45117;50.960;5.500;2023-04-25T10:11:44;100606.78;;;12.85
59339;BMP280;45117;50.960;5.500;2023-04-25T10:14:12;100613.59;;;12.89
59339;BMP280;45117;50.960;5.500;2023-04-25T10:16:40;100598.28;;;12.20
59339;BMP280;45117;50.960;5.500;2023-04-25T10:19:07;100621.03;;;12.15
59339;BMP280;45117;50.960;5.500;2023-04-25T10:21:36;100625.84;;;12.04
59339;BMP280;45117;50.960;5.500;2023-04-25T10:24:04;100627.34;;;11.17
59339;BMP280;45117;50.960;5.500;2023-04-25T10:26:31;100625.59;;;11.03
59339;BMP280;45117;50.960;5.500;2023-04-25T10:29:01;100637.59;;;10.91
59339;BMP280;45117;50.960;5.500;2023-04-25T10:31:29;100632.44;;;10.70
59339;BMP280;45117;50.960;5.500;2023-04-25T10:33:56;100643.31;;;10.49
59339;BMP280;45117;50.960;5.500;2023-04-25T10:36:24;100649.81;;;10.51
59339;BMP280;45117;50.960;5.500;2023-04-25T10:38:52;100644.53;;;10.44
59339;BMP280;45117;50.960;5.500;2023-04-25T10:41:20;100658.13;;;10.23
59339;BMP280;45117;50.960;5.500;2023-04-25T10:43:49;100661.56;;;10.16
59339;BMP280;45117;50.960;5.500;2023-04-25T10:46:19;100663.63;;;9.94
59339;BMP280;45117;50.960;5.500;2023-04-25T10:48:49;100644.25;;;9.51
59339;BMP280;45117;50.960;5.500;2023-04-25T10:51:18;100665.66;;;9.69
59339;BMP280;45117;50.960;5.500;2023-04-25T10:53:44;100658.78;;;9.64
59339;BMP280;45117;50.960;5.500;2023-04-25T10:56:11;100650.41;;;9.44
59339;BMP280;45117;50.960;5.500;2023-04-25T10:58:42;100658.03;;;9.60
59339;BMP280;45117;50.960;5.500;2023-04-25T11:01:09;100664.19;;;9.50
59339;BMP280;45117;50.960;5.500;2023-04-25T11:03:40;100663.00;;;9.58
59339;BMP280;45117;50.960;5.500;2023-04-25T11:06:20;100659.88;;;9.70
59339;BMP280;45117;50.960;5.500;2023-04-25T11:08:48;100671.44;;;9.60
59339;BMP280;45117;50.960;5.500;2023-04-25T11:11:15;100666.41;;;9.69
59339;BMP280;45117;50.960;5.500;2023-04-25T11:13:42;100670.25;;;9.65
59339;BMP280;45117;50.960;5.500;2023-04-25T11:16:09;100670.09;;;10.00
59339;BMP280;45117;50.960;5.500;2023-04-25T11:18:36;100655.28;;;9.78
59339;BMP280;45117;50.960;5.500;2023-04-25T11:21:05;100668.69;;;9.67
59339;BMP280;45117;50.960;5.500;2023-04-25T11:23:32;100658.97;;;10.05
59339;BMP280;45117;50.960;5.500;2023-04-25T11:25:58;100671.00;;;10.39
59339;BMP280;45117;50.960;5.500;2023-04-25T11:28:26;100666.75;;;10.45
59339;BMP280;45117;50.960;5.500;2023-04-25T11:30:53;100673.66;;;10.42
59339;BMP280;45117;50.960;5.500;2023-04-25T11:33:23;100671.09;;;10.80
59339;BMP280;45117;50.960;5.500;2023-04-25T11:35:49;100674.34;;;10.98
59339;BMP280;45117;50.960;5.500;2023-04-25T11:38:17;100675.78;;;11.10
59339;BMP280;45117;50.960;5.500;2023-04-25T11:40:44;100669.63;;;11.43
59339;BMP280;45117;50.960;5.500;2023-04-25T11:43:15;100671.06;;;12.13
59339;BMP280;45117;50.960;5.500;2023-04-25T11:45:46;100667.81;;;11.98
59339;BMP280;45117;50.960;5.500;2023-04-25T11:48:12;100674.56;;;11.83
59339;BMP280;45117;50.960;5.500;2023-04-25T11:50:39;100669.59;;;12.31
59339;BMP280;45117;50.960;5.500;2023-04-25T11:53:05;100673.28;;;12.18
59339;BMP280;45117;50.960;5.500;2023-04-25T11:55:34;100668.19;;;13.33
59339;BMP280;45117;50.960;5.500;2023-04-25T11:58:03;100659.53;;;13.78
59339;BMP280;45117;50.960;5.500;2023-04-25T12:00:30;100662.41;;;13.35
59339;BMP280;45117;50.960;5.500;2023-04-25T12:02:57;100651.50;;;13.58
59339;BMP280;45117;50.960;5.500;2023-04-25T12:05:25;100660.84;;;13.90
59339;BMP280;45117;50.960;5.500;2023-04-25T12:07:52;100662.25;;;13.78
59339;BMP280;45117;50.960;5.500;2023-04-25T12:10:19;100650.28;;;14.44
59339;BMP280;45117;50.960;5.500;2023-04-25T12:12:48;100658.50;;;14.98
59339;BMP280;45117;50.960;5.500;2023-04-25T12:15:16;100655.22;;;14.62
59339;BMP280;45117;50.960;5.500;2023-04-25T12:17:45;100663.06;;;14.72
59339;BMP280;45117;50.960;5.500;2023-04-25T12:20:14;100655.63;;;14.31
59339;BMP280;45117;50.960;5.500;2023-04-25T12:22:41;100653.22;;;13.84
59339;BMP280;45117;50.960;5.500;2023-04-25T12:25:10;100652.44;;;13.32
59339;BMP280;45117;50.960;5.500;2023-04-25T12:27:37;100660.84;;;12.94
59339;BMP280;45117;50.960;5.500;2023-04-25T12:30:07;100662.75;;;12.74
59339;BMP280;45117;50.960;5.500;2023-04-25T12:32:34;100673.56;;;12.50
59339;BMP280;45117;50.960;5.500;2023-04-25T12:35:00;100691.22;;;12.01
59339;BMP280;45117;50.960;5.500;2023-04-25T12:37:28;100697.06;;;11.65
59339;BMP280;45117;50.960;5.500;2023-04-25T12:39:55;100708.50;;;10.98
59339;BMP280;45117;50.960;5.500;2023-04-25T12:42:21;100708.25;;;10.81
59339;BMP280;45117;50.960;5.500;2023-04-25T12:44:48;100714.59;;;10.57
59339;BMP280;45117;50.960;5.500;2023-04-25T12:47:16;100723.31;;;10.64
59339;BMP280;45117;50.960;5.500;2023-04-25T12:49:42;100723.84;;;10.52
59339;BMP280;45117;50.960;5.500;2023-04-25T12:52:08;100715.50;;;10.32
59339;BMP280;45117;50.960;5.500;2023-04-25T12:54:35;100715.81;;;10.45
59339;BMP280;45117;50.960;5.500;2023-04-25T12:57:02;100717.78;;;10.34
59339;BMP280;45117;50.960;5.500;2023-04-25T12:59:28;100709.69;;;10.45
59339;BMP280;45117;50.960;5.500;2023-04-25T13:01:55;100711.94;;;10.50
59339;BMP280;45117;50.960;5.500;2023-04-25T13:04:23;100709.44;;;10.80
59339;BMP280;45117;50.960;5.500;2023-04-25T13:06:50;100718.25;;;10.77
59339;BMP280;45117;50.960;5.500;2023-04-25T13:09:16;100708.25;;;10.81
59339;BMP280;45117;50.960;5.500;2023-04-25T13:11:43;100715.63;;;11.18
59339;BMP280;45117;50.960;5.500;2023-04-25T13:14:10;100702.00;;;11.36
59339;BMP280;45117;50.960;5.500;2023-04-25T13:16:36;100708.09;;;11.40
59339;BMP280;45117;50.960;5.500;2023-04-25T13:19:03;100711.56;;;12.02
59339;BMP280;45117;50.960;5.500;2023-04-25T13:21:32;100711.03;;;11.84
59339;BMP280;45117;50.960;5.500;2023-04-25T13:23:58;100708.78;;;12.36
59339;BMP280;45117;50.960;5.500;2023-04-25T13:26:25;100709.03;;;12.69
59339;BMP280;45117;50.960;5.500;2023-04-25T13:28:52;100702.28;;;12.80
59339;BMP280;45117;50.960;5.500;2023-04-25T13:31:18;100706.09;;;12.59
59339;BMP280;45117;50.960;5.500;2023-04-25T13:33:45;100703.88;;;12.54
59339;BMP280;45117;50.960;5.500;2023-04-25T13:36:11;100698.78;;;12.83
59339;BMP280;45117;50.960;5.500;2023-04-25T13:38:39;100703.00;;;13.83
59339;BMP280;45117;50.960;5.500;2023-04-25T13:41:10;100698.94;;;13.92
59339;BMP280;45117;50.960;5.500;2023-04-25T13:43:41;100687.69;;;13.97
59339;BMP280;45117;50.960;5.500;2023-04-25T13:46:07;100679.06;;;14.18
59339;BMP280;45117;50.960;5.500;2023-04-25T13:48:35;100688.09;;;14.44
59339;BMP280;45117;50.960;5.500;2023-04-25T13:51:01;100664.97;;;14.10
59339;BMP280;45117;50.960;5.500;2023-04-25T13:53:27;100694.75;;;14.56
59339;BMP280;45117;50.960;5.500;2023-04-25T13:55:55;100697.81;;;14.70
59339;BMP280;45117;50.960;5.500;2023-04-25T13:58:22;100700.28;;;15.10
59339;BMP280;45117;50.960;5.500;2023-04-25T14:00:48;100703.72;;;14.36
59339;BMP280;45117;50.960;5.500;2023-04-25T14:03:15;100707.59;;;14.19
59339;BMP280;45117;50.960;5.500;2023-04-25T14:05:41;100703.97;;;13.17